sensor_id;sensor_type;location;lat;lon;timestamp;pressure;altitude;pressure_sealevel;temperature;humidity
36748;BME280;22716;51.556;5.080;2023-07-09T00:02:03;100997.84;;;26.66;73.88
36748;BME280;22716;51.556;5.080;2023-07-09T00:04:32;100999.06;;;26.62;74.91
36748;BME280;22716;51.556;5.080;2023-07-09T00:07:02;101003.81;;;26.58;74.68
36748;BME280;22716;51.556;5.080;2023-07-09T00:09:31;101013.50;;;26.48;76.41
36748;BME280;22716;51.556;5.080;2023-07-09T00:12:00;101012.03;;;26.44;76.00
36748;BME280;22716;51.556;5.080;2023-07-09T00:14:29;101002.16;;;26.45;76.10
36748;BME280;22716;51.556;5.080;2023-07-09T00:16:57;101014.59;;;26.46;76.37
36748;BME280;22716;51.556;5.080;2023-07-09T00:19:28;101016.13;;;26.37;76.44
36748;BME280;22716;51.556;5.080;2023-07-09T00:21:57;101015.72;;;26.31;76.74
36748;BME280;22716;51.556;5.080;2023-07-09T00:24:26;101016.72;;;26.30;77.23
36748;BME280;22716;51.556;5.080;2023-07-09T00:26:54;101022.09;;;26.30;76.51
36748;BME280;22716;51.556;5.080;2023-07-09T00:29:23;101021.53;;;26.25;78.23
36748;BME280;22716;51.556;5.080;2023-07-09T00:31:52;101020.34;;;26.29;76.73
36748;BME280;22716;51.556;5.080;2023-07-09T00:34:20;101014.25;;;26.27;76.59
36748;BME280;22716;51.556;5.080;2023-07-09T00:36:53;101021.44;;;26.26;77.46
36748;BME280;22716;51.556;5.080;2023-07-09T00:39:22;101018.34;;;26.20;78.37
36748;BME280;22716;51.556;5.080;2023-07-09T00:41:52;101030.28;;;26.15;77.74
36748;BME280;22716;51.556;5.080;2023-07-09T00:44:26;101018.44;;;26.05;78.42
36748;BME280;22716;51.556;5.080;2023-07-09T00:47:17;101027.38;;;26.06;79.43
36748;BME280;22716;51.556;5.080;2023-07-09T00:49:47;101025.00;;;26.01;79.29
36748;BME280;22716;51.556;5.080;2023-07-09T00:52:25;101024.91;;;26.03;78.64
36748;BME280;22716;51.556;5.080;2023-07-09T00:54:59;101022.53;;;25.98;80.10
36748;BME280;22716;51.556;5.080;2023-07-09T00:57:31;101017.72;;;25.91;80.21
36748;BME280;22716;51.556;5.080;2023-07-09T01:00:06;101026.41;;;25.94;79.86
36748;BME280;22716;51.556;5.080;2023-07-09T01:02:39;101031.00;;;25.92;80.02
36748;BME280;22716;51.556;5.080;2023-07-09T01:05:11;101019.97;;;25.84;80.69
36748;BME280;22716;51.556;5.080;2023-07-09T01:07:46;101016.56;;;25.82;80.79
36748;BME280;22716;51.556;5.080;2023-07-09T01:10:16;101017.50;;;25.81;80.61
36748;BME280;22716;51.556;5.080;2023-07-09T01:12:46;101026.09;;;25.86;81.09
36748;BME280;22716;51.556;5.080;2023-07-09T01:15:17;101031.34;;;25.88;80.78
36748;BME280;22716;51.556;5.080;2023-07-09T01:17:46;101022.88;;;25.81;81.45
36748;BME280;22716;51.556;5.080;2023-07-09T01:20:20;101026.56;;;25.80;81.83
36748;BME280;22716;51.556;5.080;2023-07-09T01:22:52;101028.59;;;25.77;82.15
36748;BME280;22716;51.556;5.080;2023-07-09T01:25:27;101029.75;;;25.73;81.96
36748;BME280;22716;51.556;5.080;2023-07-09T01:27:56;101034.47;;;25.69;82.58
36748;BME280;22716;51.556;5.080;2023-07-09T01:30:30;101021.41;;;25.65;83.68
36748;BME280;22716;51.556;5.080;2023-07-09T01:33:00;101030.59;;;25.60;83.83
36748;BME280;22716;51.556;5.080;2023-07-09T01:35:34;101034.38;;;25.58;84.07
36748;BME280;22716;51.556;5.080;2023-07-09T01:38:09;101037.78;;;25.60;83.92
36748;BME280;22716;51.556;5.080;2023-07-09T01:40:38;101038.34;;;25.52;84.35
36748;BME280;22716;51.556;5.080;2023-07-09T01:43:08;101033.50;;;25.45;84.31
36748;BME280;22716;51.556;5.080;2023-07-09T01:45:37;101050.16;;;25.50;84.34
36748;BME280;22716;51.556;5.080;2023-07-09T01:48:06;101038.84;;;25.45;84.94
36748;BME280;22716;51.556;5.080;2023-07-09T01:50:41;101037.63;;;25.36;86.64
36748;BME280;22716;51.556;5.080;2023-07-09T01:53:14;101038.69;;;25.34;86.22
36748;BME280;22716;51.556;5.080;2023-07-09T01:55:44;101043.31;;;25.32;86.21
36748;BME280;22716;51.556;5.080;2023-07-09T01:58:13;101037.22;;;25.30;87.19
36748;BME280;22716;51.556;5.080;2023-07-09T02:00:42;101041.50;;;25.32;86.51
36748;BME280;22716;51.556;5.080;2023-07-09T02:03:11;101036.81;;;25.36;86.27
36748;BME280;22716;51.556;5.080;2023-07-09T02:05:40;101038.69;;;25.34;86.79
36748;BME280;22716;51.556;5.080;2023-07-09T02:08:09;101036.34;;;25.29;86.71
36748;BME280;22716;51.556;5.080;2023-07-09T02:10:43;101025.38;;;25.20;87.37
36748;BME280;22716;51.556;5.080;2023-07-09T02:13:12;101025.94;;;25.25;87.82
36748;BME280;22716;51.556;5.080;2023-07-09T02:15:42;101035.69;;;25.26;87.20
36748;BME280;22716;51.556;5.080;2023-07-09T02:18:11;101022.41;;;25.24;86.73
36748;BME280;22716;51.556;5.080;2023-07-09T02:20:39;101026.03;;;25.23;87.29
36748;BME280;22716;51.556;5.080;2023-07-09T02:23:08;101029.69;;;25.22;88.09
36748;BME280;22716;51.556;5.080;2023-07-09T02:25:40;101029.25;;;25.16;87.80
36748;BME280;22716;51.556;5.080;2023-07-09T02:28:08;101025.34;;;25.07;88.29
36748;BME280;22716;51.556;5.080;2023-07-09T02:30:37;101020.31;;;25.02;88.77
36748;BME280;22716;51.556;5.080;2023-07-09T02:33:06;101018.25;;;24.93;89.16
36748;BME280;22716;51.556;5.080;2023-07-09T02:35:34;101022.75;;;24.93;89.68
36748;BME280;22716;51.556;5.080;2023-07-09T02:38:04;101026.50;;;24.90;89.86
36748;BME280;22716;51.556;5.080;2023-07-09T02:40:33;101030.25;;;24.88;90.76
36748;BME280;22716;51.556;5.080;2023-07-09T02:43:05;101025.47;;;24.79;91.01
36748;BME280;22716;51.556;5.080;2023-07-09T02:45:33;101027.28;;;24.78;91.50
36748;BME280;22716;51.556;5.080;2023-07-09T02:48:02;101027.59;;;24.74;91.78
36748;BME280;22716;51.556;5.080;2023-07-09T02:50:31;101027.59;;;24.74;92.44
36748;BME280;22716;51.556;5.080;2023-07-09T02:52:59;101023.09;;;24.74;92.01
36748;BME280;22716;51.556;5.080;2023-07-09T02:55:28;101016.00;;;24.73;92.64
36748;BME280;22716;51.556;5.080;2023-07-09T02:57:56;101021.47;;;24.72;92.78
36748;BME280;22716;51.556;5.080;2023-07-09T03:00:28;101022.84;;;24.65;93.79
36748;BME280;22716;51.556;5.080;2023-07-09T03:02:57;101021.22;;;24.62;93.31
36748;BME280;22716;51.556;5.080;2023-07-09T03:05:26;101027.72;;;24.58;94.71
36748;BME280;22716;51.556;5.080;2023-07-09T03:07:54;101016.34;;;24.54;94.56
36748;BME280;22716;51.556;5.080;2023-07-09T03:10:23;101022.78;;;24.52;94.98
36748;BME280;22716;51.556;5.080;2023-07-09T03:12:51;101027.38;;;24.50;94.97
36748;BME280;22716;51.556;5.080;2023-07-09T03:15:21;101027.66;;;24.45;95.63
36748;BME280;22716;51.556;5.080;2023-07-09T03:17:52;101025.09;;;24.44;95.87
36748;BME280;22716;51.556;5.080;2023-07-09T03:20:21;101023.38;;;24.43;95.32
36748;BME280;22716;51.556;5.080;2023-07-09T03:22:49;101033.34;;;24.41;96.16
36748;BME280;22716;51.556;5.080;2023-07-09T03:25:18;101030.19;;;24.34;96.45
36748;BME280;22716;51.556;5.080;2023-07-09T03:27:47;101029.72;;;24.28;97.19
36748;BME280;22716;51.556;5.080;2023-07-09T03:30:16;101023.81;;;24.23;97.04
36748;BME280;22716;51.556;5.080;2023-07-09T03:32:45;101023.91;;;24.21;97.29
36748;BME280;22716;51.556;5.080;2023-07-09T03:35:16;101026.13;;;24.15;97.42
36748;BME280;22716;51.556;5.080;2023-07-09T03:37:45;101027.25;;;24.11;97.94
36748;BME280;22716;51.556;5.080;2023-07-09T03:40:20;101028.41;;;24.07;98.51
36748;BME280;22716;51.556;5.080;2023-07-09T03:42:49;101032.31;;;24.01;98.83
36748;BME280;22716;51.556;5.080;2023-07-09T03:45:18;101028.09;;;23.97;98.31
36748;BME280;22716;51.556;5.080;2023-07-09T03:47:47;101038.91;;;23.95;98.53
36748;BME280;22716;51.556;5.080;2023-07-09T03:50:18;101031.06;;;23.92;98.70
36748;BME280;22716;51.556;5.080;2023-07-09T03:52:47;101024.94;;;23.90;98.99
36748;BME280;22716;51.556;5.080;2023-07-09T03:55:16;101032.03;;;23.91;99.08
36748;BME280;22716;51.556;5.080;2023-07-09T03:57:45;101026.94;;;23.87;99.88
36748;BME280;22716;51.556;5.080;2023-07-09T04:00:14;101029.94;;;23.82;99.69
36748;BME280;22716;51.556;5.080;2023-07-09T04:02:42;101021.03;;;23.82;100.00
36748;BME280;22716;51.556;5.080;2023-07-09T04:05:11;101029.00;;;23.83;100.00
36748;BME280;22716;51.556;5.080;2023-07-09T04:07:43;101019.22;;;23.82;100.00
36748;BME280;22716;51.556;5.080;2023-07-09T04:10:13;101021.03;;;23.82;100.00
36748;BME280;22716;51.556;5.080;2023-07-09T04:12:42;101018.75;;;23.90;100.00
36748;BME280;22716;51.556;5.080;2023-07-09T04:15:11;101018.84;;;23.88;99.41
36748;BME280;22716;51.556;5.080;2023-07-09T04:17:41;101020.34;;;23.92;99.55
36748;BME280;22716;51.556;5.080;2023-07-09T04:20:11;101024.94;;;23.90;99.57
36748;BME280;22716;51.556;5.080;2023-07-09T04:22:44;101021.13;;;23.94;98.75
36748;BME280;22716;51.556;5.080;2023-07-09T04:25:13;101026.50;;;23.94;99.41
36748;BME280;22716;51.556;5.080;2023-07-09T04:27:42;101024.75;;;23.93;99.27
36748;BME280;22716;51.556;5.080;2023-07-09T04:30:13;101021.34;;;23.91;98.91
36748;BME280;22716;51.556;5.080;2023-07-09T04:32:42;101025.63;;;23.94;99.06
36748;BME280;22716;51.556;5.080;2023-07-09T04:35:12;101023.03;;;23.92;99.74
36748;BME280;22716;51.556;5.080;2023-07-09T04:37:44;101013.13;;;23.94;99.08
36748;BME280;22716;51.556;5.080;2023-07-09T04:40:13;101021.81;;;23.98;99.20
36748;BME280;22716;51.556;5.080;2023-07-09T04:42:42;101022.44;;;24.02;99.37
36748;BME280;22716;51.556;5.080;2023-07-09T04:45:11;101025.25;;;24.00;98.99
36748;BME280;22716;51.556;5.080;2023-07-09T04:47:40;101014.53;;;24.00;98.80
36748;BME280;22716;51.556;5.080;2023-07-09T04:50:10;101020.56;;;24.04;99.31
36748;BME280;22716;51.556;5.080;2023-07-09T04:52:39;101009.66;;;24.07;98.93
36748;BME280;22716;51.556;5.080;2023-07-09T04:55:11;101014.81;;;24.10;98.72
36748;BME280;22716;51.556;5.080;2023-07-09T04:57:39;101012.72;;;24.15;98.58
36748;BME280;22716;51.556;5.080;2023-07-09T05:00:10;101012.44;;;24.19;98.80
36748;BME280;22716;51.556;5.080;2023-07-09T05:02:39;101024.94;;;24.33;98.40
36748;BME280;22716;51.556;5.080;2023-07-09T05:05:08;101021.75;;;24.40;97.48
36748;BME280;22716;51.556;5.080;2023-07-09T05:07:38;101028.53;;;24.46;97.57
36748;BME280;22716;51.556;5.080;2023-07-09T05:10:07;101020.41;;;24.47;96.92
36748;BME280;22716;51.556;5.080;2023-07-09T05:12:47;101024.03;;;24.46;97.00
36748;BME280;22716;51.556;5.080;2023-07-09T05:15:18;101026.44;;;24.51;96.24
36748;BME280;22716;51.556;5.080;2023-07-09T05:17:47;101032.22;;;24.58;95.68
36748;BME280;22716;51.556;5.080;2023-07-09T05:20:16;101033.97;;;24.59;96.47
36748;BME280;22716;51.556;5.080;2023-07-09T05:22:44;101034.81;;;24.59;95.89
36748;BME280;22716;51.556;5.080;2023-07-09T05:25:13;101035.28;;;24.66;94.84
36748;BME280;22716;51.556;5.080;2023-07-09T05:27:44;101035.09;;;24.69;94.91
36748;BME280;22716;51.556;5.080;2023-07-09T05:30:13;101035.53;;;24.75;94.56
36748;BME280;22716;51.556;5.080;2023-07-09T05:32:41;101030.81;;;24.79;94.96
36748;BME280;22716;51.556;5.080;2023-07-09T05:35:10;101038.41;;;24.86;93.88
36748;BME280;22716;51.556;5.080;2023-07-09T05:37:39;101030.78;;;24.93;94.27
36748;BME280;22716;51.556;5.080;2023-07-09T05:40:08;101031.78;;;25.04;93.29
36748;BME280;22716;51.556;5.080;2023-07-09T05:42:37;101033.34;;;25.21;92.34
36748;BME280;22716;51.556;5.080;2023-07-09T05:45:10;101033.03;;;25.38;91.35
36748;BME280;22716;51.556;5.080;2023-07-09T05:47:38;101033.84;;;25.53;90.69
36748;BME280;22716;51.556;5.080;2023-07-09T05:50:08;101038.56;;;25.62;90.36
36748;BME280;22716;51.556;5.080;2023-07-09T05:52:36;101033.41;;;25.59;89.73
36748;BME280;22716;51.556;5.080;2023-07-09T05:55:06;101046.41;;;25.65;90.31
36748;BME280;22716;51.556;5.080;2023-07-09T05:57:35;101050.56;;;25.69;88.71
36748;BME280;22716;51.556;5.080;2023-07-09T06:00:05;101044.03;;;25.73;89.25
36748;BME280;22716;51.556;5.080;2023-07-09T06:02:36;101045.94;;;25.84;88.32
36748;BME280;22716;51.556;5.080;2023-07-09T06:05:06;101045.44;;;25.91;87.40
36748;BME280;22716;51.556;5.080;2023-07-09T06:07:36;101047.25;;;26.03;87.54
36748;BME280;22716;51.556;5.080;2023-07-09T06:10:07;101053.66;;;26.13;86.72
36748;BME280;22716;51.556;5.080;2023-07-09T06:12:36;101057.03;;;26.17;86.20
36748;BME280;22716;51.556;5.080;2023-07-09T06:15:07;101064.72;;;26.22;85.93
36748;BME280;22716;51.556;5.080;2023-07-09T06:17:38;101054.31;;;26.30;84.61
36748;BME280;22716;51.556;5.080;2023-07-09T06:20:09;101056.88;;;26.31;84.43
36748;BME280;22716;51.556;5.080;2023-07-09T06:22:37;101052.34;;;26.44;84.36
36748;BME280;22716;51.556;5.080;2023-07-09T06:25:07;101055.19;;;26.54;84.57
36748;BME280;22716;51.556;5.080;2023-07-09T06:27:36;101054.88;;;26.58;83.22
36748;BME280;22716;51.556;5.080;2023-07-09T06:30:07;101059.66;;;26.66;82.38
36748;BME280;22716;51.556;5.080;2023-07-09T06:32:38;101054.84;;;26.71;81.61
36748;BME280;22716;51.556;5.080;2023-07-09T06:35:08;101051.91;;;26.74;81.62
36748;BME280;22716;51.556;5.080;2023-07-09T06:37:36;101055.00;;;26.81;81.83
36748;BME280;22716;51.556;5.080;2023-07-09T06:40:07;101059.84;;;26.88;81.46
36748;BME280;22716;51.556;5.080;2023-07-09T06:42:36;101050.97;;;26.99;81.31
36748;BME280;22716;51.556;5.080;2023-07-09T06:45:06;101053.69;;;27.10;80.68
36748;BME280;22716;51.556;5.080;2023-07-09T06:47:37;101055.56;;;27.20;80.63
36748;BME280;22716;51.556;5.080;2023-07-09T06:50:07;101056.06;;;27.25;80.09
36748;BME280;22716;51.556;5.080;2023-07-09T06:52:35;101064.16;;;27.37;79.62
36748;BME280;22716;51.556;5.080;2023-07-09T06:55:05;101056.72;;;27.40;79.13
36748;BME280;22716;51.556;5.080;2023-07-09T06:57:34;101060.81;;;27.46;79.44
36748;BME280;22716;51.556;5.080;2023-07-09T07:00:04;101065.72;;;27.52;78.76
36748;BME280;22716;51.556;5.080;2023-07-09T07:02:33;101060.81;;;27.57;77.42
36748;BME280;22716;51.556;5.080;2023-07-09T07:05:05;101061.94;;;27.65;77.02
36748;BME280;22716;51.556;5.080;2023-07-09T07:07:34;101069.69;;;27.70;76.74
36748;BME280;22716;51.556;5.080;2023-07-09T07:10:03;101069.81;;;27.79;76.13
36748;BME280;22716;51.556;5.080;2023-07-09T07:12:42;101074.59;;;27.76;76.42
36748;BME280;22716;51.556;5.080;2023-07-09T07:15:16;101055.34;;;27.69;76.04
36748;BME280;22716;51.556;5.080;2023-07-09T07:17:45;101069.94;;;27.78;75.98
36748;BME280;22716;51.556;5.080;2023-07-09T07:20:17;101069.69;;;27.81;75.53
36748;BME280;22716;51.556;5.080;2023-07-09T07:22:45;101063.09;;;27.85;75.38
36748;BME280;22716;51.556;5.080;2023-07-09T07:25:15;101071.66;;;27.90;75.79
36748;BME280;22716;51.556;5.080;2023-07-09T07:27:44;101066.75;;;27.95;75.36
36748;BME280;22716;51.556;5.080;2023-07-09T07:30:13;101068.84;;;28.03;75.15
36748;BME280;22716;51.556;5.080;2023-07-09T07:32:45;101058.50;;;28.09;75.04
36748;BME280;22716;51.556;5.080;2023-07-09T07:35:17;101052.59;;;28.15;74.29
36748;BME280;22716;51.556;5.080;2023-07-09T07:37:46;101052.84;;;28.23;73.80
36748;BME280;22716;51.556;5.080;2023-07-09T07:40:15;101059.69;;;28.27;73.25
36748;BME280;22716;51.556;5.080;2023-07-09T07:42:44;101055.63;;;28.33;72.96
36748;BME280;22716;51.556;5.080;2023-07-09T07:45:13;101050.00;;;28.36;72.38
36748;BME280;22716;51.556;5.080;2023-07-09T07:47:41;101051.47;;;28.40;72.70
36748;BME280;22716;51.556;5.080;2023-07-09T07:50:10;101049.59;;;28.52;72.34
36748;BME280;22716;51.556;5.080;2023-07-09T07:52:41;101057.06;;;28.59;71.73
36748;BME280;22716;51.556;5.080;2023-07-09T07:55:10;101058.44;;;28.65;71.36
36748;BME280;22716;51.556;5.080;2023-07-09T07:57:38;101062.47;;;28.70;70.46
36748;BME280;22716;51.556;5.080;2023-07-09T08:00:09;101070.78;;;28.78;69.56
36748;BME280;22716;51.556;5.080;2023-07-09T08:02:37;101066.59;;;28.85;70.14
36748;BME280;22716;51.556;5.080;2023-07-09T08:05:07;101055.56;;;28.88;69.07
36748;BME280;22716;51.556;5.080;2023-07-09T08:07:36;101058.47;;;28.97;68.94
36748;BME280;22716;51.556;5.080;2023-07-09T08:10:08;101049.97;;;29.01;69.07
36748;BME280;22716;51.556;5.080;2023-07-09T08:12:37;101058.81;;;29.03;67.73
36748;BME280;22716;51.556;5.080;2023-07-09T08:15:08;101060.66;;;29.03;67.63
36748;BME280;22716;51.556;5.080;2023-07-09T08:17:37;101061.25;;;29.06;68.05
36748;BME280;22716;51.556;5.080;2023-07-09T08:20:07;101063.97;;;29.06;68.02
36748;BME280;22716;51.556;5.080;2023-07-09T08:22:35;101045.78;;;29.08;67.23
36748;BME280;22716;51.556;5.080;2023-07-09T08:25:08;101056.31;;;29.11;66.96
36748;BME280;22716;51.556;5.080;2023-07-09T08:27:36;101045.38;;;29.13;67.08
36748;BME280;22716;51.556;5.080;2023-07-09T08:30:07;101050.41;;;29.17;66.50
36748;BME280;22716;51.556;5.080;2023-07-09T08:32:35;101053.09;;;29.17;67.29
36748;BME280;22716;51.556;5.080;2023-07-09T08:35:04;101054.47;;;29.23;66.12
36748;BME280;22716;51.556;5.080;2023-07-09T08:37:36;101052.63;;;29.23;66.22
36748;BME280;22716;51.556;5.080;2023-07-09T08:40:10;101048.81;;;29.26;66.14
36748;BME280;22716;51.556;5.080;2023-07-09T08:42:42;101048.41;;;29.30;65.81
36748;BME280;22716;51.556;5.080;2023-07-09T08:45:22;101050.19;;;29.41;65.86
36748;BME280;22716;51.556;5.080;2023-07-09T08:48:00;101063.03;;;29.49;65.43
36748;BME280;22716;51.556;5.080;2023-07-09T08:50:36;101065.03;;;29.56;66.04
36748;BME280;22716;51.556;5.080;2023-07-09T08:53:10;101065.53;;;29.61;65.37
36748;BME280;22716;51.556;5.080;2023-07-09T08:55:49;101061.97;;;29.61;64.42
36748;BME280;22716;51.556;5.080;2023-07-09T08:58:24;101055.13;;;29.57;64.94
36748;BME280;22716;51.556;5.080;2023-07-09T09:00:56;101056.31;;;29.64;64.66
36748;BME280;22716;51.556;5.080;2023-07-09T09:03:31;101062.75;;;29.72;65.14
36748;BME280;22716;51.556;5.080;2023-07-09T09:06:10;101049.69;;;29.77;63.85
36748;BME280;22716;51.556;5.080;2023-07-09T09:08:42;101043.06;;;29.81;64.51
36748;BME280;22716;51.556;5.080;2023-07-09T09:11:20;101033.00;;;29.83;64.59
36748;BME280;22716;51.556;5.080;2023-07-09T09:13:54;101045.56;;;29.94;63.12
36748;BME280;22716;51.556;5.080;2023-07-09T09:16:26;101040.00;;;29.95;63.61
36748;BME280;22716;51.556;5.080;2023-07-09T09:18:59;101034.59;;;29.95;62.97
36748;BME280;22716;51.556;5.080;2023-07-09T09:21:31;101044.88;;;30.02;62.78
36748;BME280;22716;51.556;5.080;2023-07-09T09:24:13;101035.38;;;30.07;62.64
36748;BME280;22716;51.556;5.080;2023-07-09T09:26:46;101037.94;;;30.09;62.25
36748;BME280;22716;51.556;5.080;2023-07-09T09:29:17;101042.34;;;30.10;63.06
36748;BME280;22716;51.556;5.080;2023-07-09T09:31:50;101040.94;;;30.15;62.87
36748;BME280;22716;51.556;5.080;2023-07-09T09:34:22;101043.09;;;30.21;63.00
36748;BME280;22716;51.556;5.080;2023-07-09T09:36:52;101034.88;;;30.23;62.81
36748;BME280;22716;51.556;5.080;2023-07-09T09:39:23;101025.63;;;30.25;62.78
36748;BME280;22716;51.556;5.080;2023-07-09T09:41:57;101023.06;;;30.33;62.32
36748;BME280;22716;51.556;5.080;2023-07-09T09:44:28;101018.41;;;30.35;61.68
36748;BME280;22716;51.556;5.080;2023-07-09T09:46:58;101017.03;;;30.41;61.99
36748;BME280;22716;51.556;5.080;2023-07-09T09:49:27;101012.06;;;30.46;61.74
36748;BME280;22716;51.556;5.080;2023-07-09T09:52:02;101021.03;;;30.56;60.29
36748;BME280;22716;51.556;5.080;2023-07-09T09:54:31;101015.19;;;30.51;59.84
36748;BME280;22716;51.556;5.080;2023-07-09T09:57:04;101021.19;;;30.54;60.11
36748;BME280;22716;51.556;5.080;2023-07-09T09:59:36;101025.03;;;30.62;58.74
36748;BME280;22716;51.556;5.080;2023-07-09T10:02:22;101030.72;;;30.68;58.36
36748;BME280;22716;51.556;5.080;2023-07-09T10:04:52;101034.84;;;30.63;57.95
36748;BME280;22716;51.556;5.080;2023-07-09T10:07:25;101040.97;;;30.74;58.60
36748;BME280;22716;51.556;5.080;2023-07-09T10:09:55;101039.56;;;30.80;57.84
36748;BME280;22716;51.556;5.080;2023-07-09T10:12:36;101051.53;;;30.87;58.23
36748;BME280;22716;51.556;5.080;2023-07-09T10:15:16;101049.53;;;30.89;57.79
36748;BME280;22716;51.556;5.080;2023-07-09T10:17:53;101054.09;;;30.88;58.62
36748;BME280;22716;51.556;5.080;2023-07-09T10:20:25;101064.78;;;30.90;58.14
36748;BME280;22716;51.556;5.080;2023-07-09T10:23:02;101059.50;;;30.88;58.48
36748;BME280;22716;51.556;5.080;2023-07-09T10:25:37;101059.25;;;31.01;58.65
36748;BME280;22716;51.556;5.080;2023-07-09T10:28:28;101053.56;;;31.04;58.39
36748;BME280;22716;51.556;5.080;2023-07-09T10:31:07;101059.69;;;31.16;58.22
36748;BME280;22716;51.556;5.080;2023-07-09T10:33:49;101055.56;;;31.21;57.65
36748;BME280;22716;51.556;5.080;2023-07-09T10:36:32;101057.56;;;31.19;57.89
36748;BME280;22716;51.556;5.080;2023-07-09T10:39:09;101058.69;;;31.07;57.74
36748;BME280;22716;51.556;5.080;2023-07-09T10:41:40;101050.84;;;31.04;58.93
36748;BME280;22716;51.556;5.080;2023-07-09T10:44:16;101057.28;;;31.22;58.21
36748;BME280;22716;51.556;5.080;2023-07-09T10:46:50;101061.53;;;31.34;57.87
36748;BME280;22716;51.556;5.080;2023-07-09T10:49:21;101056.25;;;31.42;57.17
36748;BME280;22716;51.556;5.080;2023-07-09T10:51:55;101057.41;;;31.30;58.11
36748;BME280;22716;51.556;5.080;2023-07-09T10:54:32;101060.25;;;31.29;58.71
36748;BME280;22716;51.556;5.080;2023-07-09T10:57:08;101045.28;;;31.34;58.79
36748;BME280;22716;51.556;5.080;2023-07-09T10:59:43;101048.53;;;31.47;59.23
36748;BME280;22716;51.556;5.080;2023-07-09T11:02:19;101040.72;;;31.54;58.14
36748;BME280;22716;51.556;5.080;2023-07-09T11:04:53;101039.88;;;31.44;58.67
36748;BME280;22716;51.556;5.080;2023-07-09T11:07:27;101038.88;;;31.54;57.88
36748;BME280;22716;51.556;5.080;2023-07-09T11:09:59;101043.84;;;31.59;57.50
36748;BME280;22716;51.556;5.080;2023-07-09T11:12:32;101052.81;;;31.59;57.11
36748;BME280;22716;51.556;5.080;2023-07-09T11:15:07;101059.56;;;31.55;57.46
36748;BME280;22716;51.556;5.080;2023-07-09T11:17:40;101063.81;;;31.58;56.74
36748;BME280;22716;51.556;5.080;2023-07-09T11:20:27;101055.72;;;31.48;55.88
36748;BME280;22716;51.556;5.080;2023-07-09T11:23:03;101060.81;;;31.42;57.40
36748;BME280;22716;51.556;5.080;2023-07-09T11:25:41;101071.09;;;31.48;57.19
36748;BME280;22716;51.556;5.080;2023-07-09T11:28:11;101075.81;;;31.55;56.77
36748;BME280;22716;51.556;5.080;2023-07-09T11:30:51;101085.78;;;31.65;55.96
36748;BME280;22716;51.556;5.080;2023-07-09T11:33:28;101095.59;;;31.56;55.27
36748;BME280;22716;51.556;5.080;2023-07-09T11:36:07;101086.19;;;31.50;54.97
36748;BME280;22716;51.556;5.080;2023-07-09T11:38:40;101091.88;;;31.47;55.95
36748;BME280;22716;51.556;5.080;2023-07-09T11:41:22;101096.56;;;31.45;57.01
36748;BME280;22716;51.556;5.080;2023-07-09T11:44:03;101097.03;;;31.50;57.55
36748;BME280;22716;51.556;5.080;2023-07-09T11:46:38;101105.16;;;31.50;58.66
36748;BME280;22716;51.556;5.080;2023-07-09T11:49:09;101101.72;;;31.39;59.86
36748;BME280;22716;51.556;5.080;2023-07-09T11:51:42;101107.28;;;31.37;60.98
36748;BME280;22716;51.556;5.080;2023-07-09T11:54:12;101111.69;;;31.38;61.46
36748;BME280;22716;51.556;5.080;2023-07-09T11:56:41;101103.25;;;31.41;61.34
36748;BME280;22716;51.556;5.080;2023-07-09T11:59:11;101102.97;;;31.44;60.61
36748;BME280;22716;51.556;5.080;2023-07-09T12:01:44;101102.59;;;31.49;60.93
36748;BME280;22716;51.556;5.080;2023-07-09T12:04:16;101105.59;;;31.55;59.98
36748;BME280;22716;51.556;5.080;2023-07-09T12:06:45;101109.13;;;31.56;60.21
36748;BME280;22716;51.556;5.080;2023-07-09T12:09:16;101106.41;;;31.56;60.04
36748;BME280;22716;51.556;5.080;2023-07-09T12:11:48;101110.97;;;31.46;61.79
36748;BME280;22716;51.556;5.080;2023-07-09T12:14:18;101107.72;;;31.23;64.79
36748;BME280;22716;51.556;5.080;2023-07-09T12:16:51;101108.53;;;31.04;66.55
36748;BME280;22716;51.556;5.080;2023-07-09T12:19:22;101107.75;;;30.83;67.62
36748;BME280;22716;51.556;5.080;2023-07-09T12:21:53;101102.78;;;30.79;68.48
36748;BME280;22716;51.556;5.080;2023-07-09T12:24:24;101107.34;;;30.78;68.47
36748;BME280;22716;51.556;5.080;2023-07-09T12:26:54;101119.41;;;30.74;68.53
36748;BME280;22716;51.556;5.080;2023-07-09T12:29:25;101118.56;;;30.64;68.24
36748;BME280;22716;51.556;5.080;2023-07-09T12:32:00;101120.91;;;30.48;68.21
36748;BME280;22716;51.556;5.080;2023-07-09T12:34:31;101120.97;;;30.37;68.42
36748;BME280;22716;51.556;5.080;2023-07-09T12:37:00;101120.81;;;30.29;68.15
36748;BME280;22716;51.556;5.080;2023-07-09T12:39:31;101128.00;;;30.19;68.36
36748;BME280;22716;51.556;5.080;2023-07-09T12:42:03;101114.50;;;30.19;68.42
36748;BME280;22716;51.556;5.080;2023-07-09T12:44:35;101116.47;;;30.17;67.59
36748;BME280;22716;51.556;5.080;2023-07-09T12:47:12;101115.72;;;30.05;66.58
36748;BME280;22716;51.556;5.080;2023-07-09T12:49:43;101097.28;;;29.89;66.91
36748;BME280;22716;51.556;5.080;2023-07-09T12:52:18;101093.25;;;29.84;66.09
36748;BME280;22716;51.556;5.080;2023-07-09T12:54:57;101085.75;;;29.67;66.16
36748;BME280;22716;51.556;5.080;2023-07-09T12:57:28;101091.34;;;29.54;66.55
36748;BME280;22716;51.556;5.080;2023-07-09T12:59:57;101091.84;;;29.48;66.81
36748;BME280;22716;51.556;5.080;2023-07-09T13:02:29;101099.41;;;29.33;66.93
36748;BME280;22716;51.556;5.080;2023-07-09T13:05:04;101106.59;;;29.23;67.19
36748;BME280;22716;51.556;5.080;2023-07-09T13:07:35;101112.22;;;29.09;67.93
36748;BME280;22716;51.556;5.080;2023-07-09T13:10:11;101106.22;;;28.74;69.09
36748;BME280;22716;51.556;5.080;2023-07-09T13:12:46;101106.81;;;28.55;70.19